Terminal Aerodrome Forecast
Issued by NWS

Home | Current Version | Previous Version | Text Only | Print | Product List | Glossary Off
Versions: 1 2 3 4 5 6 7 8 9 10 11 12 13 14 15 16 17 18 19 20 21 22 23 24 25 26 27 28 29 30

462
FTUS43 KOAX 261720
TAFCDR
TAF
KCDR 261720Z 2618/2718 04012KT 5SM -RA BR OVC015
      TEMPO 2618/2620 2SM -RA BR OVC006
     FM262100 34011KT P6SM OVC015
      TEMPO 2621/2624 3SM -RA
     FM270000 33008KT 2SM BR OVC015
     FM270600 29008KT 1SM BR OVC015
     FM271500 33013KT P6SM BKN025=

USA.gov is the U.S. government's official web portal to all federal, state and local government web resources and services.